sensor_id;sensor_type;location;lat;lon;timestamp;P1;durP1;ratioP1;P2;durP2;ratioP2
40150;SDS011;25866;52.420;10.640;2024-02-28T00:01:37;9.63;;;7.40;;
40150;SDS011;25866;52.420;10.640;2024-02-28T00:04:03;9.33;;;7.63;;
40150;SDS011;25866;52.420;10.640;2024-02-28T00:06:29;9.63;;;8.10;;
40150;SDS011;25866;52.420;10.640;2024-02-28T00:08:54;11.27;;;7.03;;
40150;SDS011;25866;52.420;10.640;2024-02-28T00:11:21;9.57;;;7.33;;
40150;SDS011;25866;52.420;10.640;2024-02-28T00:13:46;9.87;;;7.70;;
40150;SDS011;25866;52.420;10.640;2024-02-28T00:16:12;10.10;;;7.90;;
40150;SDS011;25866;52.420;10.640;2024-02-28T00:18:38;9.60;;;7.93;;
40150;SDS011;25866;52.420;10.640;2024-02-28T00:21:03;10.53;;;7.37;;
40150;SDS011;25866;52.420;10.640;2024-02-28T00:23:29;10.17;;;7.30;;
40150;SDS011;25866;52.420;10.640;2024-02-28T00:25:56;10.43;;;8.13;;
40150;SDS011;25866;52.420;10.640;2024-02-28T00:28:22;9.93;;;7.40;;
40150;SDS011;25866;52.420;10.640;2024-02-28T00:30:47;9.80;;;7.50;;
40150;SDS011;25866;52.420;10.640;2024-02-28T00:33:13;10.20;;;7.57;;
40150;SDS011;25866;52.420;10.640;2024-02-28T00:35:39;10.03;;;7.70;;
40150;SDS011;25866;52.420;10.640;2024-02-28T00:38:05;10.83;;;7.90;;
40150;SDS011;25866;52.420;10.640;2024-02-28T00:40:31;10.83;;;8.07;;
40150;SDS011;25866;52.420;10.640;2024-02-28T00:42:57;9.97;;;7.70;;
40150;SDS011;25866;52.420;10.640;2024-02-28T00:45:23;9.60;;;7.50;;
40150;SDS011;25866;52.420;10.640;2024-02-28T00:47:48;11.20;;;8.27;;
40150;SDS011;25866;52.420;10.640;2024-02-28T00:50:14;10.70;;;7.70;;
40150;SDS011;25866;52.420;10.640;2024-02-28T00:52:40;10.20;;;7.83;;
40150;SDS011;25866;52.420;10.640;2024-02-28T00:55:06;10.73;;;8.00;;
40150;SDS011;25866;52.420;10.640;2024-02-28T00:57:32;9.97;;;7.87;;
40150;SDS011;25866;52.420;10.640;2024-02-28T01:02:35;10.33;;;8.03;;
40150;SDS011;25866;52.420;10.640;2024-02-28T01:05:01;9.07;;;7.57;;
40150;SDS011;25866;52.420;10.640;2024-02-28T01:07:27;11.13;;;8.20;;
40150;SDS011;25866;52.420;10.640;2024-02-28T01:09:53;11.03;;;8.60;;
40150;SDS011;25866;52.420;10.640;2024-02-28T01:12:20;10.40;;;7.87;;
40150;SDS011;25866;52.420;10.640;2024-02-28T01:14:45;10.70;;;8.43;;
40150;SDS011;25866;52.420;10.640;2024-02-28T01:17:11;11.80;;;8.43;;
40150;SDS011;25866;52.420;10.640;2024-02-28T01:19:38;9.67;;;7.73;;
40150;SDS011;25866;52.420;10.640;2024-02-28T01:22:05;12.27;;;7.80;;
40150;SDS011;25866;52.420;10.640;2024-02-28T01:24:31;11.27;;;8.10;;
40150;SDS011;25866;52.420;10.640;2024-02-28T01:26:58;10.97;;;8.03;;
40150;SDS011;25866;52.420;10.640;2024-02-28T01:29:24;11.63;;;8.67;;
40150;SDS011;25866;52.420;10.640;2024-02-28T01:31:50;11.13;;;8.50;;
40150;SDS011;25866;52.420;10.640;2024-02-28T01:34:16;10.63;;;8.23;;
40150;SDS011;25866;52.420;10.640;2024-02-28T01:36:43;13.90;;;8.90;;
40150;SDS011;25866;52.420;10.640;2024-02-28T01:39:09;10.97;;;8.20;;
40150;SDS011;25866;52.420;10.640;2024-02-28T01:41:35;11.07;;;8.00;;
40150;SDS011;25866;52.420;10.640;2024-02-28T01:44:01;10.83;;;8.33;;
40150;SDS011;25866;52.420;10.640;2024-02-28T01:46:27;9.43;;;7.70;;
40150;SDS011;25866;52.420;10.640;2024-02-28T01:48:54;11.53;;;8.30;;
40150;SDS011;25866;52.420;10.640;2024-02-28T01:51:23;11.60;;;7.90;;
40150;SDS011;25866;52.420;10.640;2024-02-28T01:53:52;12.17;;;9.27;;
40150;SDS011;25866;52.420;10.640;2024-02-28T01:56:19;11.73;;;8.50;;
40150;SDS011;25866;52.420;10.640;2024-02-28T01:58:46;12.13;;;8.80;;
40150;SDS011;25866;52.420;10.640;2024-02-28T02:01:16;10.60;;;8.37;;
40150;SDS011;25866;52.420;10.640;2024-02-28T02:03:43;10.00;;;8.43;;
40150;SDS011;25866;52.420;10.640;2024-02-28T02:06:09;11.70;;;8.50;;
40150;SDS011;25866;52.420;10.640;2024-02-28T02:08:36;11.47;;;9.07;;
40150;SDS011;25866;52.420;10.640;2024-02-28T02:11:02;10.33;;;8.43;;
40150;SDS011;25866;52.420;10.640;2024-02-28T02:13:29;14.00;;;8.73;;
40150;SDS011;25866;52.420;10.640;2024-02-28T02:15:55;10.87;;;8.27;;
40150;SDS011;25866;52.420;10.640;2024-02-28T02:18:20;12.10;;;8.57;;
40150;SDS011;25866;52.420;10.640;2024-02-28T02:20:47;12.10;;;8.80;;
40150;SDS011;25866;52.420;10.640;2024-02-28T02:23:23;9.60;;;7.60;;
40150;SDS011;25866;52.420;10.640;2024-02-28T02:25:49;11.53;;;8.33;;
40150;SDS011;25866;52.420;10.640;2024-02-28T02:28:15;10.23;;;7.90;;
40150;SDS011;25866;52.420;10.640;2024-02-28T02:30:41;10.23;;;7.90;;
40150;SDS011;25866;52.420;10.640;2024-02-28T02:33:07;10.50;;;7.60;;
40150;SDS011;25866;52.420;10.640;2024-02-28T02:35:33;13.47;;;9.07;;
40150;SDS011;25866;52.420;10.640;2024-02-28T02:38:00;12.07;;;8.50;;
40150;SDS011;25866;52.420;10.640;2024-02-28T02:40:26;10.93;;;8.30;;
40150;SDS011;25866;52.420;10.640;2024-02-28T02:42:51;10.80;;;7.70;;
40150;SDS011;25866;52.420;10.640;2024-02-28T02:45:17;11.43;;;8.37;;
40150;SDS011;25866;52.420;10.640;2024-02-28T02:47:43;10.93;;;7.83;;
40150;SDS011;25866;52.420;10.640;2024-02-28T02:50:09;11.03;;;8.43;;
40150;SDS011;25866;52.420;10.640;2024-02-28T02:52:35;10.40;;;7.97;;
40150;SDS011;25866;52.420;10.640;2024-02-28T02:55:01;12.63;;;8.97;;
40150;SDS011;25866;52.420;10.640;2024-02-28T02:57:31;11.53;;;8.50;;
40150;SDS011;25866;52.420;10.640;2024-02-28T02:59:58;10.33;;;8.00;;
40150;SDS011;25866;52.420;10.640;2024-02-28T03:02:24;11.37;;;7.67;;
40150;SDS011;25866;52.420;10.640;2024-02-28T03:04:52;11.03;;;8.20;;
40150;SDS011;25866;52.420;10.640;2024-02-28T03:07:17;10.30;;;8.00;;
40150;SDS011;25866;52.420;10.640;2024-02-28T03:09:43;11.00;;;8.67;;
40150;SDS011;25866;52.420;10.640;2024-02-28T03:12:09;11.83;;;8.53;;
40150;SDS011;25866;52.420;10.640;2024-02-28T03:14:35;12.57;;;8.00;;
40150;SDS011;25866;52.420;10.640;2024-02-28T03:17:01;10.93;;;8.20;;
40150;SDS011;25866;52.420;10.640;2024-02-28T03:19:27;9.57;;;7.40;;
40150;SDS011;25866;52.420;10.640;2024-02-28T03:21:52;10.93;;;7.63;;
40150;SDS011;25866;52.420;10.640;2024-02-28T03:24:18;11.87;;;8.10;;
40150;SDS011;25866;52.420;10.640;2024-02-28T03:26:44;13.93;;;8.73;;
40150;SDS011;25866;52.420;10.640;2024-02-28T03:29:10;11.03;;;8.30;;
40150;SDS011;25866;52.420;10.640;2024-02-28T03:31:36;10.80;;;7.90;;
40150;SDS011;25866;52.420;10.640;2024-02-28T03:34:03;13.83;;;8.33;;
40150;SDS011;25866;52.420;10.640;2024-02-28T03:36:29;10.03;;;8.13;;
40150;SDS011;25866;52.420;10.640;2024-02-28T03:38:55;9.93;;;8.40;;
40150;SDS011;25866;52.420;10.640;2024-02-28T03:41:21;12.73;;;8.90;;
40150;SDS011;25866;52.420;10.640;2024-02-28T03:43:47;9.73;;;8.40;;
40150;SDS011;25866;52.420;10.640;2024-02-28T03:46:13;11.77;;;8.97;;
40150;SDS011;25866;52.420;10.640;2024-02-28T03:48:38;10.53;;;8.20;;
40150;SDS011;25866;52.420;10.640;2024-02-28T03:51:04;10.60;;;8.40;;
40150;SDS011;25866;52.420;10.640;2024-02-28T03:53:30;12.10;;;8.53;;
40150;SDS011;25866;52.420;10.640;2024-02-28T03:55:56;11.37;;;8.67;;
40150;SDS011;25866;52.420;10.640;2024-02-28T03:58:21;11.30;;;8.50;;
40150;SDS011;25866;52.420;10.640;2024-02-28T04:00:47;11.27;;;8.87;;
40150;SDS011;25866;52.420;10.640;2024-02-28T04:03:14;10.27;;;8.37;;
40150;SDS011;25866;52.420;10.640;2024-02-28T04:05:41;13.73;;;9.37;;
40150;SDS011;25866;52.420;10.640;2024-02-28T04:08:07;13.40;;;9.80;;
40150;SDS011;25866;52.420;10.640;2024-02-28T04:10:33;11.27;;;8.83;;
40150;SDS011;25866;52.420;10.640;2024-02-28T04:12:58;11.37;;;8.97;;
40150;SDS011;25866;52.420;10.640;2024-02-28T04:15:25;16.17;;;10.27;;
40150;SDS011;25866;52.420;10.640;2024-02-28T04:17:51;11.97;;;9.40;;
40150;SDS011;25866;52.420;10.640;2024-02-28T04:20:17;12.77;;;9.97;;
40150;SDS011;25866;52.420;10.640;2024-02-28T04:22:43;12.07;;;9.13;;
40150;SDS011;25866;52.420;10.640;2024-02-28T04:25:09;12.37;;;8.90;;
40150;SDS011;25866;52.420;10.640;2024-02-28T04:27:35;12.43;;;9.27;;
40150;SDS011;25866;52.420;10.640;2024-02-28T04:30:01;13.80;;;9.50;;
40150;SDS011;25866;52.420;10.640;2024-02-28T04:32:27;15.03;;;11.80;;
40150;SDS011;25866;52.420;10.640;2024-02-28T04:34:54;15.93;;;12.33;;
40150;SDS011;25866;52.420;10.640;2024-02-28T04:37:20;15.37;;;11.90;;
40150;SDS011;25866;52.420;10.640;2024-02-28T04:39:46;16.93;;;11.93;;
40150;SDS011;25866;52.420;10.640;2024-02-28T04:42:12;16.77;;;12.53;;
40150;SDS011;25866;52.420;10.640;2024-02-28T04:44:38;16.43;;;11.93;;
40150;SDS011;25866;52.420;10.640;2024-02-28T04:47:04;16.87;;;12.53;;
40150;SDS011;25866;52.420;10.640;2024-02-28T04:49:30;16.87;;;12.60;;
40150;SDS011;25866;52.420;10.640;2024-02-28T04:51:56;17.57;;;12.57;;
40150;SDS011;25866;52.420;10.640;2024-02-28T04:54:23;15.57;;;12.57;;
40150;SDS011;25866;52.420;10.640;2024-02-28T04:56:49;17.10;;;13.07;;
40150;SDS011;25866;52.420;10.640;2024-02-28T04:59:16;14.90;;;11.63;;
40150;SDS011;25866;52.420;10.640;2024-02-28T05:01:42;17.40;;;11.77;;
40150;SDS011;25866;52.420;10.640;2024-02-28T05:04:09;15.97;;;12.17;;
40150;SDS011;25866;52.420;10.640;2024-02-28T05:06:35;16.77;;;12.67;;
40150;SDS011;25866;52.420;10.640;2024-02-28T05:09:01;16.93;;;12.47;;
40150;SDS011;25866;52.420;10.640;2024-02-28T05:11:27;18.13;;;13.93;;
40150;SDS011;25866;52.420;10.640;2024-02-28T05:13:52;16.80;;;13.23;;
40150;SDS011;25866;52.420;10.640;2024-02-28T05:16:20;18.13;;;12.87;;
40150;SDS011;25866;52.420;10.640;2024-02-28T05:18:46;15.93;;;11.47;;
40150;SDS011;25866;52.420;10.640;2024-02-28T05:21:12;15.83;;;12.03;;
40150;SDS011;25866;52.420;10.640;2024-02-28T05:23:39;16.17;;;12.37;;
40150;SDS011;25866;52.420;10.640;2024-02-28T05:26:07;19.23;;;13.10;;
40150;SDS011;25866;52.420;10.640;2024-02-28T05:28:33;20.77;;;13.87;;
40150;SDS011;25866;52.420;10.640;2024-02-28T05:31:03;15.83;;;12.43;;
40150;SDS011;25866;52.420;10.640;2024-02-28T05:33:51;18.63;;;13.40;;
40150;SDS011;25866;52.420;10.640;2024-02-28T05:36:24;21.47;;;13.60;;
40150;SDS011;25866;52.420;10.640;2024-02-28T05:38:51;17.50;;;13.03;;
40150;SDS011;25866;52.420;10.640;2024-02-28T05:41:18;20.03;;;14.17;;
40150;SDS011;25866;52.420;10.640;2024-02-28T05:43:44;17.63;;;13.70;;
40150;SDS011;25866;52.420;10.640;2024-02-28T05:46:14;21.27;;;14.90;;
40150;SDS011;25866;52.420;10.640;2024-02-28T05:48:40;18.80;;;14.17;;
40150;SDS011;25866;52.420;10.640;2024-02-28T05:51:06;22.67;;;15.43;;
40150;SDS011;25866;52.420;10.640;2024-02-28T05:53:32;19.17;;;13.97;;
40150;SDS011;25866;52.420;10.640;2024-02-28T05:56:02;22.30;;;16.73;;
40150;SDS011;25866;52.420;10.640;2024-02-28T05:58:28;22.20;;;16.03;;
40150;SDS011;25866;52.420;10.640;2024-02-28T06:00:54;21.83;;;16.80;;
40150;SDS011;25866;52.420;10.640;2024-02-28T06:03:19;22.23;;;16.93;;
40150;SDS011;25866;52.420;10.640;2024-02-28T06:05:51;24.17;;;17.40;;
40150;SDS011;25866;52.420;10.640;2024-02-28T06:08:17;24.00;;;17.47;;
40150;SDS011;25866;52.420;10.640;2024-02-28T06:10:43;27.80;;;19.27;;
40150;SDS011;25866;52.420;10.640;2024-02-28T06:13:11;31.90;;;18.30;;
40150;SDS011;25866;52.420;10.640;2024-02-28T06:15:38;25.30;;;19.13;;
40150;SDS011;25866;52.420;10.640;2024-02-28T06:18:04;26.63;;;19.23;;
40150;SDS011;25866;52.420;10.640;2024-02-28T06:20:30;33.17;;;20.70;;
40150;SDS011;25866;52.420;10.640;2024-02-28T06:22:56;29.17;;;20.73;;
40150;SDS011;25866;52.420;10.640;2024-02-28T06:25:23;30.37;;;20.07;;
40150;SDS011;25866;52.420;10.640;2024-02-28T06:27:49;30.10;;;20.17;;
40150;SDS011;25866;52.420;10.640;2024-02-28T06:30:16;30.53;;;21.27;;
40150;SDS011;25866;52.420;10.640;2024-02-28T06:32:42;29.50;;;20.47;;
40150;SDS011;25866;52.420;10.640;2024-02-28T06:35:09;27.63;;;20.20;;
40150;SDS011;25866;52.420;10.640;2024-02-28T06:37:45;30.40;;;21.37;;
40150;SDS011;25866;52.420;10.640;2024-02-28T06:40:15;32.67;;;21.83;;
40150;SDS011;25866;52.420;10.640;2024-02-28T06:42:41;30.03;;;20.87;;
40150;SDS011;25866;52.420;10.640;2024-02-28T06:45:07;26.97;;;18.80;;
40150;SDS011;25866;52.420;10.640;2024-02-28T06:47:33;28.73;;;18.97;;
40150;SDS011;25866;52.420;10.640;2024-02-28T06:50:01;26.00;;;18.73;;
40150;SDS011;25866;52.420;10.640;2024-02-28T06:52:28;28.40;;;20.37;;
40150;SDS011;25866;52.420;10.640;2024-02-28T06:54:53;30.33;;;20.23;;
40150;SDS011;25866;52.420;10.640;2024-02-28T06:57:19;26.57;;;20.33;;
40150;SDS011;25866;52.420;10.640;2024-02-28T06:59:45;32.63;;;21.93;;
40150;SDS011;25866;52.420;10.640;2024-02-28T07:02:11;30.07;;;21.17;;
40150;SDS011;25866;52.420;10.640;2024-02-28T07:04:38;25.50;;;19.30;;
40150;SDS011;25866;52.420;10.640;2024-02-28T07:07:11;27.40;;;19.13;;
40150;SDS011;25866;52.420;10.640;2024-02-28T07:09:37;25.53;;;18.77;;
40150;SDS011;25866;52.420;10.640;2024-02-28T07:12:03;28.73;;;18.43;;
40150;SDS011;25866;52.420;10.640;2024-02-28T07:14:29;35.87;;;19.40;;
40150;SDS011;25866;52.420;10.640;2024-02-28T07:17:01;28.70;;;18.90;;
40150;SDS011;25866;52.420;10.640;2024-02-28T07:19:27;27.90;;;20.43;;
40150;SDS011;25866;52.420;10.640;2024-02-28T07:21:53;29.67;;;20.63;;
40150;SDS011;25866;52.420;10.640;2024-02-28T07:24:19;31.67;;;21.97;;
40150;SDS011;25866;52.420;10.640;2024-02-28T07:26:46;34.80;;;22.10;;
40150;SDS011;25866;52.420;10.640;2024-02-28T07:29:11;31.10;;;20.70;;
40150;SDS011;25866;52.420;10.640;2024-02-28T07:31:37;31.67;;;20.17;;
40150;SDS011;25866;52.420;10.640;2024-02-28T07:34:03;27.80;;;20.53;;
40150;SDS011;25866;52.420;10.640;2024-02-28T07:36:30;29.57;;;20.30;;
40150;SDS011;25866;52.420;10.640;2024-02-28T07:38:56;29.50;;;20.13;;
40150;SDS011;25866;52.420;10.640;2024-02-28T07:41:22;27.67;;;18.87;;
40150;SDS011;25866;52.420;10.640;2024-02-28T07:43:49;31.27;;;20.73;;
40150;SDS011;25866;52.420;10.640;2024-02-28T07:46:16;28.57;;;20.07;;
40150;SDS011;25866;52.420;10.640;2024-02-28T07:48:41;26.43;;;18.70;;
40150;SDS011;25866;52.420;10.640;2024-02-28T07:51:08;24.97;;;18.13;;
40150;SDS011;25866;52.420;10.640;2024-02-28T07:53:34;27.67;;;19.47;;
40150;SDS011;25866;52.420;10.640;2024-02-28T07:56:01;26.20;;;19.07;;
40150;SDS011;25866;52.420;10.640;2024-02-28T07:58:32;29.83;;;20.53;;
40150;SDS011;25866;52.420;10.640;2024-02-28T08:00:57;27.77;;;19.17;;
40150;SDS011;25866;52.420;10.640;2024-02-28T08:03:23;28.53;;;19.73;;
40150;SDS011;25866;52.420;10.640;2024-02-28T08:05:49;24.80;;;17.57;;
40150;SDS011;25866;52.420;10.640;2024-02-28T08:08:15;25.27;;;18.03;;
40150;SDS011;25866;52.420;10.640;2024-02-28T08:10:41;29.90;;;17.60;;
40150;SDS011;25866;52.420;10.640;2024-02-28T08:13:07;24.67;;;17.30;;
40150;SDS011;25866;52.420;10.640;2024-02-28T08:15:33;24.07;;;16.63;;
40150;SDS011;25866;52.420;10.640;2024-02-28T08:18:01;25.63;;;17.53;;
40150;SDS011;25866;52.420;10.640;2024-02-28T08:20:26;24.70;;;17.03;;
40150;SDS011;25866;52.420;10.640;2024-02-28T08:22:52;25.90;;;17.30;;
40150;SDS011;25866;52.420;10.640;2024-02-28T08:25:18;27.03;;;17.77;;
40150;SDS011;25866;52.420;10.640;2024-02-28T08:27:51;31.30;;;17.73;;
40150;SDS011;25866;52.420;10.640;2024-02-28T08:30:17;26.50;;;17.53;;
40150;SDS011;25866;52.420;10.640;2024-02-28T08:32:42;26.10;;;17.77;;
40150;SDS011;25866;52.420;10.640;2024-02-28T08:35:08;24.43;;;16.57;;
40150;SDS011;25866;52.420;10.640;2024-02-28T08:37:39;26.97;;;17.80;;
40150;SDS011;25866;52.420;10.640;2024-02-28T08:40:06;27.00;;;16.90;;
40150;SDS011;25866;52.420;10.640;2024-02-28T08:42:33;28.63;;;17.83;;
40150;SDS011;25866;52.420;10.640;2024-02-28T08:44:59;26.00;;;16.57;;
40150;SDS011;25866;52.420;10.640;2024-02-28T08:47:27;24.20;;;16.60;;
40150;SDS011;25866;52.420;10.640;2024-02-28T08:49:53;27.53;;;18.60;;
40150;SDS011;25866;52.420;10.640;2024-02-28T08:52:19;25.87;;;18.20;;
40150;SDS011;25866;52.420;10.640;2024-02-28T08:54:45;25.73;;;17.33;;
40150;SDS011;25866;52.420;10.640;2024-02-28T08:57:13;25.57;;;17.40;;
40150;SDS011;25866;52.420;10.640;2024-02-28T08:59:39;24.40;;;17.20;;
40150;SDS011;25866;52.420;10.640;2024-02-28T09:02:05;28.03;;;17.83;;
40150;SDS011;25866;52.420;10.640;2024-02-28T09:04:32;25.63;;;16.93;;
40150;SDS011;25866;52.420;10.640;2024-02-28T09:06:57;24.70;;;17.37;;
40150;SDS011;25866;52.420;10.640;2024-02-28T09:09:23;26.27;;;17.43;;
40150;SDS011;25866;52.420;10.640;2024-02-28T09:11:49;28.00;;;17.67;;
40150;SDS011;25866;52.420;10.640;2024-02-28T09:14:14;26.53;;;17.33;;
40150;SDS011;25866;52.420;10.640;2024-02-28T09:16:40;27.63;;;17.67;;
40150;SDS011;25866;52.420;10.640;2024-02-28T09:19:07;25.27;;;17.27;;
40150;SDS011;25866;52.420;10.640;2024-02-28T09:21:33;30.47;;;18.23;;
40150;SDS011;25866;52.420;10.640;2024-02-28T09:23:59;30.93;;;19.60;;
40150;SDS011;25866;52.420;10.640;2024-02-28T09:26:26;27.27;;;19.07;;
40150;SDS011;25866;52.420;10.640;2024-02-28T09:28:53;29.00;;;19.53;;
40150;SDS011;25866;52.420;10.640;2024-02-28T09:31:18;30.17;;;18.57;;
40150;SDS011;25866;52.420;10.640;2024-02-28T09:33:44;29.57;;;18.63;;
40150;SDS011;25866;52.420;10.640;2024-02-28T09:36:11;28.63;;;19.10;;
40150;SDS011;25866;52.420;10.640;2024-02-28T09:38:37;27.63;;;18.83;;
40150;SDS011;25866;52.420;10.640;2024-02-28T09:41:03;28.30;;;19.40;;
40150;SDS011;25866;52.420;10.640;2024-02-28T09:43:30;31.07;;;19.53;;
40150;SDS011;25866;52.420;10.640;2024-02-28T09:46:01;30.17;;;18.00;;
40150;SDS011;25866;52.420;10.640;2024-02-28T09:48:31;27.30;;;18.60;;
40150;SDS011;25866;52.420;10.640;2024-02-28T09:50:57;30.03;;;18.57;;
40150;SDS011;25866;52.420;10.640;2024-02-28T09:53:24;30.50;;;19.17;;
40150;SDS011;25866;52.420;10.640;2024-02-28T09:55:50;27.93;;;18.60;;
40150;SDS011;25866;52.420;10.640;2024-02-28T09:58:17;31.20;;;20.13;;
40150;SDS011;25866;52.420;10.640;2024-02-28T10:00:47;33.07;;;18.47;;
40150;SDS011;25866;52.420;10.640;2024-02-28T10:03:13;28.67;;;18.87;;
40150;SDS011;25866;52.420;10.640;2024-02-28T10:05:43;32.83;;;19.40;;
40150;SDS011;25866;52.420;10.640;2024-02-28T10:08:12;29.77;;;19.87;;
40150;SDS011;25866;52.420;10.640;2024-02-28T10:10:48;28.60;;;18.87;;
40150;SDS011;25866;52.420;10.640;2024-02-28T10:13:18;29.83;;;18.50;;
40150;SDS011;25866;52.420;10.640;2024-02-28T10:15:44;31.57;;;18.73;;
40150;SDS011;25866;52.420;10.640;2024-02-28T10:18:11;31.00;;;19.47;;
40150;SDS011;25866;52.420;10.640;2024-02-28T10:20:37;30.23;;;19.63;;
40150;SDS011;25866;52.420;10.640;2024-02-28T10:23:10;32.27;;;20.77;;
40150;SDS011;25866;52.420;10.640;2024-02-28T10:25:45;29.20;;;18.67;;
40150;SDS011;25866;52.420;10.640;2024-02-28T10:28:14;31.07;;;20.03;;
40150;SDS011;25866;52.420;10.640;2024-02-28T10:30:40;29.87;;;18.93;;
40150;SDS011;25866;52.420;10.640;2024-02-28T10:33:13;30.23;;;19.13;;
40150;SDS011;25866;52.420;10.640;2024-02-28T10:35:43;31.40;;;19.93;;
40150;SDS011;25866;52.420;10.640;2024-02-28T10:38:10;29.97;;;19.10;;
40150;SDS011;25866;52.420;10.640;2024-02-28T10:40:37;29.40;;;18.47;;
40150;SDS011;25866;52.420;10.640;2024-02-28T10:43:10;29.77;;;19.20;;
40150;SDS011;25866;52.420;10.640;2024-02-28T10:45:36;27.13;;;17.97;;
40150;SDS011;25866;52.420;10.640;2024-02-28T10:48:06;30.93;;;19.50;;
40150;SDS011;25866;52.420;10.640;2024-02-28T10:50:32;34.10;;;19.93;;
40150;SDS011;25866;52.420;10.640;2024-02-28T10:53:00;29.53;;;19.33;;
40150;SDS011;25866;52.420;10.640;2024-02-28T10:55:30;28.07;;;18.70;;
40150;SDS011;25866;52.420;10.640;2024-02-28T10:58:02;28.57;;;18.87;;
40150;SDS011;25866;52.420;10.640;2024-02-28T11:00:34;29.57;;;18.33;;
40150;SDS011;25866;52.420;10.640;2024-02-28T11:03:03;29.97;;;19.53;;
40150;SDS011;25866;52.420;10.640;2024-02-28T11:05:36;29.27;;;19.60;;
40150;SDS011;25866;52.420;10.640;2024-02-28T11:08:03;32.93;;;20.47;;
40150;SDS011;25866;52.420;10.640;2024-02-28T11:13:22;30.67;;;19.50;;
40150;SDS011;25866;52.420;10.640;2024-02-28T11:15:48;31.37;;;20.87;;
40150;SDS011;25866;52.420;10.640;2024-02-28T11:18:14;31.30;;;19.87;;
40150;SDS011;25866;52.420;10.640;2024-02-28T11:20:40;29.63;;;19.47;;
40150;SDS011;25866;52.420;10.640;2024-02-28T11:23:07;31.07;;;19.90;;
40150;SDS011;25866;52.420;10.640;2024-02-28T11:25:34;30.60;;;19.73;;
40150;SDS011;25866;52.420;10.640;2024-02-28T11:28:00;30.20;;;19.97;;
40150;SDS011;25866;52.420;10.640;2024-02-28T11:30:26;34.13;;;21.07;;
40150;SDS011;25866;52.420;10.640;2024-02-28T11:32:53;32.23;;;21.73;;
40150;SDS011;25866;52.420;10.640;2024-02-28T11:35:19;34.77;;;22.13;;
40150;SDS011;25866;52.420;10.640;2024-02-28T11:37:46;35.83;;;22.13;;
40150;SDS011;25866;52.420;10.640;2024-02-28T11:40:12;35.53;;;22.33;;
40150;SDS011;25866;52.420;10.640;2024-02-28T11:42:39;32.73;;;21.17;;
40150;SDS011;25866;52.420;10.640;2024-02-28T11:45:05;35.17;;;22.33;;
40150;SDS011;25866;52.420;10.640;2024-02-28T11:47:34;35.50;;;23.07;;
40150;SDS011;25866;52.420;10.640;2024-02-28T11:50:12;33.17;;;21.63;;
40150;SDS011;25866;52.420;10.640;2024-02-28T11:52:39;34.10;;;21.23;;
40150;SDS011;25866;52.420;10.640;2024-02-28T11:55:06;33.50;;;22.23;;
40150;SDS011;25866;52.420;10.640;2024-02-28T11:57:32;36.37;;;22.03;;
40150;SDS011;25866;52.420;10.640;2024-02-28T12:00:08;35.70;;;22.23;;
40150;SDS011;25866;52.420;10.640;2024-02-28T12:02:38;34.43;;;21.87;;
40150;SDS011;25866;52.420;10.640;2024-02-28T12:05:03;34.13;;;22.57;;
40150;SDS011;25866;52.420;10.640;2024-02-28T12:07:30;35.60;;;22.23;;
40150;SDS011;25866;52.420;10.640;2024-02-28T12:09:57;33.77;;;22.10;;
40150;SDS011;25866;52.420;10.640;2024-02-28T12:12:23;37.77;;;23.53;;
40150;SDS011;25866;52.420;10.640;2024-02-28T12:14:50;35.97;;;23.03;;
40150;SDS011;25866;52.420;10.640;2024-02-28T12:17:16;34.73;;;22.40;;
40150;SDS011;25866;52.420;10.640;2024-02-28T12:19:42;36.87;;;22.93;;
40150;SDS011;25866;52.420;10.640;2024-02-28T12:22:08;33.63;;;21.57;;
40150;SDS011;25866;52.420;10.640;2024-02-28T12:24:34;33.67;;;22.57;;
40150;SDS011;25866;52.420;10.640;2024-02-28T12:27:00;35.67;;;23.40;;
40150;SDS011;25866;52.420;10.640;2024-02-28T12:29:26;36.90;;;22.97;;
40150;SDS011;25866;52.420;10.640;2024-02-28T12:32:00;38.73;;;22.33;;
40150;SDS011;25866;52.420;10.640;2024-02-28T12:34:26;39.90;;;25.03;;
40150;SDS011;25866;52.420;10.640;2024-02-28T12:36:51;39.60;;;24.93;;
40150;SDS011;25866;52.420;10.640;2024-02-28T12:39:17;39.23;;;24.67;;
40150;SDS011;25866;52.420;10.640;2024-02-28T12:41:50;39.70;;;24.67;;
40150;SDS011;25866;52.420;10.640;2024-02-28T12:44:16;33.50;;;22.40;;
40150;SDS011;25866;52.420;10.640;2024-02-28T12:46:42;35.53;;;23.57;;
40150;SDS011;25866;52.420;10.640;2024-02-28T12:49:07;37.77;;;23.50;;
40150;SDS011;25866;52.420;10.640;2024-02-28T12:54:14;39.90;;;25.13;;
40150;SDS011;25866;52.420;10.640;2024-02-28T12:56:40;35.70;;;23.53;;
40150;SDS011;25866;52.420;10.640;2024-02-28T12:59:09;36.77;;;24.13;;
40150;SDS011;25866;52.420;10.640;2024-02-28T13:01:35;39.80;;;24.23;;
40150;SDS011;25866;52.420;10.640;2024-02-28T13:04:01;39.77;;;25.03;;
40150;SDS011;25866;52.420;10.640;2024-02-28T13:06:27;36.40;;;24.07;;
40150;SDS011;25866;52.420;10.640;2024-02-28T13:08:53;36.53;;;24.10;;
40150;SDS011;25866;52.420;10.640;2024-02-28T13:11:20;35.23;;;23.97;;
40150;SDS011;25866;52.420;10.640;2024-02-28T13:13:48;34.17;;;23.43;;
40150;SDS011;25866;52.420;10.640;2024-02-28T13:16:17;38.47;;;24.67;;
40150;SDS011;25866;52.420;10.640;2024-02-28T13:18:44;33.27;;;22.77;;
40150;SDS011;25866;52.420;10.640;2024-02-28T13:21:10;36.57;;;23.50;;
40150;SDS011;25866;52.420;10.640;2024-02-28T13:23:36;35.33;;;23.47;;
40150;SDS011;25866;52.420;10.640;2024-02-28T13:26:03;36.17;;;23.80;;
40150;SDS011;25866;52.420;10.640;2024-02-28T13:28:32;36.30;;;23.47;;
40150;SDS011;25866;52.420;10.640;2024-02-28T13:31:02;37.30;;;23.23;;
40150;SDS011;25866;52.420;10.640;2024-02-28T13:33:31;40.53;;;24.07;;
40150;SDS011;25866;52.420;10.640;2024-02-28T13:35:57;35.47;;;23.33;;
40150;SDS011;25866;52.420;10.640;2024-02-28T13:38:22;43.40;;;23.77;;
40150;SDS011;25866;52.420;10.640;2024-02-28T13:40:50;39.43;;;24.10;;
40150;SDS011;25866;52.420;10.640;2024-02-28T13:43:16;38.90;;;23.13;;
40150;SDS011;25866;52.420;10.640;2024-02-28T13:45:48;38.63;;;24.27;;
40150;SDS011;25866;52.420;10.640;2024-02-28T13:48:20;38.27;;;24.20;;
40150;SDS011;25866;52.420;10.640;2024-02-28T13:50:50;41.03;;;23.23;;
40150;SDS011;25866;52.420;10.640;2024-02-28T13:53:16;37.97;;;22.77;;
40150;SDS011;25866;52.420;10.640;2024-02-28T13:55:43;37.10;;;23.93;;
40150;SDS011;25866;52.420;10.640;2024-02-28T13:58:12;39.70;;;24.60;;
40150;SDS011;25866;52.420;10.640;2024-02-28T14:00:43;41.80;;;23.23;;
40150;SDS011;25866;52.420;10.640;2024-02-28T14:03:10;35.47;;;22.73;;
40150;SDS011;25866;52.420;10.640;2024-02-28T14:05:37;36.28;;;23.42;;
40150;SDS011;25866;52.420;10.640;2024-02-28T14:08:02;33.83;;;23.57;;
40150;SDS011;25866;52.420;10.640;2024-02-28T14:10:29;37.60;;;24.13;;
40150;SDS011;25866;52.420;10.640;2024-02-28T14:12:55;35.70;;;23.33;;
40150;SDS011;25866;52.420;10.640;2024-02-28T14:15:21;36.03;;;23.43;;
40150;SDS011;25866;52.420;10.640;2024-02-28T14:17:47;39.03;;;24.60;;
40150;SDS011;25866;52.420;10.640;2024-02-28T14:20:13;37.93;;;25.23;;